Time;durP1;ratioP1;P1;durP2;ratioP2;P2;SDS_P1;SDS_P2;PMS_P1;PMS_P2;Temp;Humidity;BMP_temperature;BMP_pressure;BME280_temperature;BME280_humidity;BME280_pressure;Samples;Min_cycle;Max_cycle;Signal;HPM_P1;HPM_P2
2024/01/03 00:02:55;;;;;;;2.03;1.93;;;;;;;15.48;43.93;98124.13;10349880;28;20303;-70
2024/01/03 00:07:57;;;;;;;1.80;1.70;;;;;;;15.26;44.08;98081.09;10343040;28;20249;-70
2024/01/03 00:12:59;;;;;;;2.90;1.97;;;;;;;14.16;44.23;98244.25;10353632;28;20245;-70
2024/01/03 00:18:03;;;;;;;4.43;2.40;;;;;;;13.88;44.55;98217.44;10349523;28;20341;-70
2024/01/03 00:23:10;;;;;;;3.47;1.90;;;;;;;14.26;44.12;98221.28;10356784;28;20237;-69
2024/01/03 00:28:11;;;;;;;7.10;2.07;;;;;;;15.12;43.49;98089.59;10353024;28;20236;-70
2024/01/03 00:33:13;;;;;;;3.10;1.90;;;;;;;13.43;44.91;98211.03;10352262;28;20627;-71
2024/01/03 00:38:15;;;;;;;3.43;2.10;;;;;;;15.16;42.86;98118.72;10349546;28;20244;-71
2024/01/03 00:43:17;;;;;;;1.67;1.57;;;;;;;14.93;42.84;98137.63;10349890;28;20241;-70
2024/01/03 00:48:18;;;;;;;1.83;1.67;;;;;;;14.39;43.13;98259.41;10348328;28;20790;-71
2024/01/03 00:53:21;;;;;;;1.67;1.57;;;;;;;13.69;43.96;98171.97;10332186;28;20244;-71
2024/01/03 00:58:23;;;;;;;2.33;1.67;;;;;;;15.45;42.21;98113.84;10333376;28;20588;-70
2024/01/03 01:03:25;;;;;;;2.53;1.87;;;;;;;13.71;43.88;98236.25;10353879;28;20251;-69
2024/01/03 01:08:26;;;;;;;2.17;1.73;;;;;;;15.72;41.29;98113.81;10347143;28;20240;-70
2024/01/03 01:13:28;;;;;;;5.70;2.00;;;;;;;14.96;42.03;98184.78;10355186;28;20774;-70
2024/01/03 01:18:30;;;;;;;6.07;2.47;;;;;;;15.04;42.16;98165.47;10345103;28;20272;-70
2024/01/03 01:23:33;;;;;;;2.13;1.60;;;;;;;14.61;43.25;98131.31;10352762;28;20243;-70
2024/01/03 01:28:35;;;;;;;4.03;1.87;;;;;;;15.73;41.98;98053.44;10342626;28;20233;-70
2024/01/03 01:33:36;;;;;;;2.50;2.00;;;;;;;14.53;43.45;98086.81;10350969;28;20233;-69
2024/01/03 01:38:38;;;;;;;3.20;1.90;;;;;;;14.55;43.83;98066.66;10345961;28;20229;-71
2024/01/03 01:43:40;;;;;;;3.17;1.63;;;;;;;14.44;43.18;98142.13;10355368;28;20240;-70
2024/01/03 01:48:42;;;;;;;3.53;1.70;;;;;;;14.16;44.31;98087.44;10342925;28;20233;-70
2024/01/03 01:53:44;;;;;;;2.10;2.00;;;;;;;15.07;42.72;98146.13;10350900;28;20336;-70
2024/01/03 01:58:48;;;;;;;2.80;1.90;;;;;;;14.44;43.41;98142.94;10349383;28;20700;-70
2024/01/03 02:03:52;;;;;;;3.43;1.90;;;;;;;15.21;42.62;98124.16;10353790;28;20248;-70
2024/01/03 02:08:53;;;;;;;2.50;1.60;;;;;;;14.72;43.43;98109.63;10344877;28;20221;-70
2024/01/03 02:13:55;;;;;;;2.43;1.80;;;;;;;15.15;42.66;98142.16;10355797;28;20233;-71
2024/01/03 02:18:57;;;;;;;1.93;1.83;;;;;;;14.25;43.83;98101.28;10346449;28;20248;-70
2024/01/03 02:23:59;;;;;;;1.80;1.70;;;;;;;13.83;44.69;98149.09;10350055;28;20795;-71
2024/01/03 02:29:00;;;;;;;1.80;1.70;;;;;;;14.78;43.95;98049.41;10342072;28;20217;-70
2024/01/03 02:34:02;;;;;;;1.80;1.70;;;;;;;13.62;45.21;98056.56;10351927;28;20724;-70
2024/01/03 02:39:05;;;;;;;2.47;1.90;;;;;;;14.95;43.00;98070.84;10323687;28;20205;-71
2024/01/03 02:44:06;;;;;;;3.30;2.07;;;;;;;15.18;42.76;98097.72;10348338;28;20774;-70
2024/01/03 02:49:09;;;;;;;1.60;1.50;;;;;;;15.31;42.74;98078.44;10346200;28;20206;-71
2024/01/03 02:54:11;;;;;;;1.70;1.60;;;;;;;14.26;43.41;98250.88;10353533;28;20338;-70
2024/01/03 02:59:13;;;;;;;2.80;1.70;;;;;;;14.02;44.96;98101.22;10340157;28;20250;-70
2024/01/03 03:04:14;;;;;;;1.80;1.70;;;;;;;14.18;45.67;98035.00;10350802;28;20716;-70
2024/01/03 03:09:16;;;;;;;3.17;2.20;;;;;;;12.73;46.16;98243.22;10344301;28;20297;-71
2024/01/03 03:14:18;;;;;;;2.03;1.73;;;;;;;14.61;43.81;98099.84;10351119;28;20660;-70
2024/01/03 03:19:20;;;;;;;1.60;1.50;;;;;;;13.55;45.27;98114.22;10347864;28;20392;-73
2024/01/03 03:24:22;;;;;;;1.80;1.70;;;;;;;13.35;45.73;98103.97;10351418;28;20249;-75
2024/01/03 03:29:23;;;;;;;1.70;1.60;;;;;;;13.88;45.08;98064.19;10347686;28;20521;-73
2024/01/03 03:34:25;;;;;;;2.17;1.97;;;;;;;14.06;44.70;98039.72;10356388;28;20264;-72
2024/01/03 03:39:27;;;;;;;2.00;1.87;;;;;;;13.24;45.66;98092.19;10346647;28;20245;-72
2024/01/03 03:44:29;;;;;;;1.90;1.80;;;;;;;14.71;42.72;98123.34;10352874;28;20237;-73
2024/01/03 03:49:30;;;;;;;2.93;2.70;;;;;;;13.35;44.28;98157.72;10356745;28;20291;-72
2024/01/03 03:54:32;;;;;;;2.03;1.80;;;;;;;14.87;42.06;98159.38;10360249;28;20245;-73
2024/01/03 03:59:34;;;;;;;3.97;2.40;;;;;;;14.83;42.37;98090.91;10353163;28;20241;-73
2024/01/03 04:04:35;;;;;;;3.37;2.00;;;;;;;14.12;43.11;98114.03;10355823;28;20241;-69
2024/01/03 04:09:37;;;;;;;2.83;2.20;;;;;;;15.08;41.58;98117.28;10347867;28;20261;-70
2024/01/03 04:14:39;;;;;;;2.77;2.00;;;;;;;15.43;41.18;98086.34;10356133;28;20264;-69
2024/01/03 04:19:40;;;;;;;4.10;1.80;;;;;;;14.40;42.37;98121.09;10353506;28;20252;-70
2024/01/03 04:24:42;;;;;;;2.73;2.20;;;;;;;13.84;42.60;98157.97;10350399;28;20241;-70
2024/01/03 04:29:44;;;;;;;3.87;2.00;;;;;;;13.53;43.03;98148.59;10357166;28;20237;-71
2024/01/03 04:34:45;;;;;;;5.10;2.40;;;;;;;13.71;43.22;98159.09;10360445;28;20241;-71
2024/01/03 04:39:47;;;;;;;6.00;2.57;;;;;;;14.07;42.64;98161.53;10356556;28;20821;-70
2024/01/03 04:44:49;;;;;;;3.97;2.60;;;;;;;13.25;44.00;98116.13;10356546;28;20240;-70
2024/01/03 04:49:50;;;;;;;4.73;2.77;;;;;;;13.83;43.31;98156.31;10351494;28;20230;-71
2024/01/03 04:54:55;;;;;;;5.03;2.53;;;;;;;13.74;43.26;98126.34;10346743;28;20241;-68
2024/01/03 04:59:57;;;;;;;3.97;2.60;;;;;;;13.79;42.96;98161.38;10350230;28;20257;-70
2024/01/03 05:04:58;;;;;;;2.63;2.00;;;;;;;14.74;42.46;98088.66;10353185;28;20724;-70
2024/01/03 05:10:01;;;;;;;3.67;2.50;;;;;;;14.87;41.81;98103.63;10333691;28;20225;-70
2024/01/03 05:15:07;;;;;;;3.83;2.10;;;;;;;13.51;43.47;98132.69;10352233;28;20764;-70
2024/01/03 05:20:09;;;;;;;6.50;2.50;;;;;;;14.48;42.25;98101.03;10357128;28;20236;-70
2024/01/03 05:25:11;;;;;;;7.03;2.57;;;;;;;13.17;42.93;98236.59;10350537;28;20299;-70
2024/01/03 05:30:13;;;;;;;4.20;1.90;;;;;;;13.66;42.96;98188.59;10355486;28;20675;-70
2024/01/03 05:35:15;;;;;;;4.67;2.10;;;;;;;13.33;43.29;98154.44;10353536;28;20685;-70
2024/01/03 05:40:18;;;;;;;5.63;2.57;;;;;;;14.71;42.01;98073.03;10338357;28;20269;-70
2024/01/03 05:45:20;;;;;;;4.93;2.43;;;;;;;13.61;42.80;98188.50;10346354;28;20229;-70
2024/01/03 05:50:22;;;;;;;3.23;1.90;;;;;;;14.59;42.68;98073.16;10353465;28;20713;-70
2024/01/03 05:55:24;;;;;;;3.90;2.20;;;;;;;13.87;42.67;98186.22;10353842;28;20235;-70
2024/01/03 06:00:26;;;;;;;3.53;2.07;;;;;;;14.87;41.97;98057.84;10356031;28;20595;-70
2024/01/03 06:05:27;;;;;;;2.40;2.00;;;;;;;14.54;42.40;98175.38;10353344;28;20239;-70
2024/01/03 06:10:29;;;;;;;9.47;2.50;;;;;;;14.51;42.82;98113.16;10353749;28;20269;-70
2024/01/03 06:15:31;;;;;;;5.83;2.60;;;;;;;14.69;41.61;98136.25;10352621;28;20287;-70
2024/01/03 06:20:33;;;;;;;5.50;2.63;;;;;;;14.78;41.79;98100.56;10354037;28;20328;-70
2024/01/03 06:25:37;;;;;;;4.90;2.40;;;;;;;14.74;41.48;98172.09;10349413;28;20324;-69
2024/01/03 06:30:38;;;;;;;5.77;2.30;;;;;;;13.96;42.37;98190.13;10348903;28;20260;-69
2024/01/03 06:35:40;;;;;;;4.63;2.33;;;;;;;15.01;40.98;98206.38;10354243;28;20304;-70
2024/01/03 06:40:42;;;;;;;4.47;2.00;;;;;;;14.84;41.63;98103.31;10354542;28;20268;-70
2024/01/03 06:45:43;;;;;;;9.47;2.57;;;;;;;15.90;40.02;98103.69;10330021;28;20269;-70
2024/01/03 06:50:45;;;;;;;5.17;2.53;;;;;;;15.29;41.37;98094.06;10347042;28;20232;-70
2024/01/03 06:55:48;;;;;;;3.83;2.47;;;;;;;14.48;41.63;98181.75;10352477;28;20716;-70
2024/01/03 07:00:50;;;;;;;6.00;2.13;;;;;;;15.32;41.00;98145.56;10353164;28;20264;-69
2024/01/03 07:05:51;;;;;;;3.40;1.90;;;;;;;14.45;42.78;98057.66;10355128;28;20256;-70
2024/01/03 07:10:53;;;;;;;6.73;2.40;;;;;;;14.69;42.31;98075.13;10353914;28;20237;-69
2024/01/03 07:15:55;;;;;;;5.70;3.57;;;;;;;15.19;41.52;98067.84;10347731;28;20254;-70
2024/01/03 07:20:57;;;;;;;4.40;2.70;;;;;;;15.38;41.43;98060.16;10357436;28;20343;-70
2024/01/03 07:25:58;;;;;;;5.13;2.20;;;;;;;15.18;40.58;98198.22;10359591;28;20236;-69
2024/01/03 07:31:00;;;;;;;5.33;2.27;;;;;;;13.98;42.78;98191.50;10360954;28;20321;-69
2024/01/03 07:36:02;;;;;;;3.23;2.03;;;;;;;13.71;43.10;98171.72;10357224;28;20758;-70
2024/01/03 07:41:04;;;;;;;4.10;2.20;;;;;;;15.62;42.06;98039.09;10358866;28;20233;-69
2024/01/03 07:46:05;;;;;;;4.03;2.10;;;;;;;13.06;45.51;98010.03;10357596;28;20247;-69
2024/01/03 07:51:07;;;;;;;7.93;3.00;;;;;;;15.25;42.39;98012.09;10357542;28;20233;-70
2024/01/03 07:56:09;;;;;;;2.00;1.90;;;;;;;12.29;46.11;98060.38;10357198;28;20233;-69
2024/01/03 08:01:10;;;;;;;3.50;2.20;;;;;;;15.36;41.58;98083.88;10354290;28;20291;-69
2024/01/03 08:06:19;;;;;;;5.43;2.73;;;;;;;13.49;44.67;98062.28;10352001;28;20244;-70
2024/01/03 08:11:21;;;;;;;2.90;2.00;;;;;;;13.70;44.50;98081.38;10356569;28;20654;-70
2024/01/03 08:16:23;;;;;;;2.47;2.00;;;;;;;14.08;44.49;98004.50;10357221;28;20275;-69
2024/01/03 08:21:25;;;;;;;2.63;2.10;;;;;;;12.83;44.34;98178.19;10358001;28;20348;-69
2024/01/03 08:26:27;;;;;;;4.00;2.20;;;;;;;14.64;43.65;97980.88;10358851;28;20662;-69
2024/01/03 08:31:28;;;;;;;2.73;1.80;;;;;;;14.58;42.99;98049.19;10358788;28;20247;-68
2024/01/03 08:36:41;;;;;;;4.33;2.40;;;;;;;14.06;44.07;97985.09;10352443;28;20716;-69
2024/01/03 08:41:42;;;;;;;2.43;2.20;;;;;;;13.81;44.29;98091.25;10337217;28;20320;-69
2024/01/03 08:46:44;;;;;;;3.13;2.20;;;;;;;14.59;44.11;97948.53;10349009;28;20225;-69
2024/01/03 08:51:47;;;;;;;3.40;2.00;;;;;;;12.96;45.65;98091.22;10354355;28;20237;-70
2024/01/03 08:56:50;;;;;;;6.30;2.60;;;;;;;14.74;43.65;97986.34;10353479;28;20708;-70
2024/01/03 09:01:52;;;;;;;2.87;2.10;;;;;;;14.35;43.84;98047.59;10355173;28;20248;-69
2024/01/03 09:06:55;;;;;;;4.77;1.90;;;;;;;12.36;46.96;97958.34;10355979;28;20606;-68
2024/01/03 09:11:56;;;;;;;2.67;1.83;;;;;;;12.68;46.16;98078.59;10343581;28;20241;-69
2024/01/03 09:16:58;;;;;;;1.80;1.70;;;;;;;11.89;46.43;98124.69;10356014;28;20327;-70
2024/01/03 09:22:01;;;;;;;4.63;2.10;;;;;;;13.99;45.13;98009.47;10358967;28;20328;-70
2024/01/03 09:27:04;;;;;;;3.67;2.40;;;;;;;15.29;42.80;98021.31;10353978;28;20283;-70
2024/01/03 09:32:07;;;;;;;3.37;2.10;;;;;;;14.84;42.70;98114.91;10354816;28;20343;-68
2024/01/03 09:37:09;;;;;;;2.67;2.10;;;;;;;15.73;42.61;98047.22;10355700;28;20307;-70
2024/01/03 09:42:11;;;;;;;4.00;2.10;;;;;;;14.20;44.51;98084.00;10351459;28;20267;-70
2024/01/03 09:47:14;;;;;;;1.90;1.80;;;;;;;15.78;42.29;98101.19;10354738;28;20225;-69
2024/01/03 09:52:16;;;;;;;2.67;2.43;;;;;;;14.92;43.25;98135.19;10351438;28;20240;-70
2024/01/03 09:57:19;;;;;;;2.47;2.07;;;;;;;14.65;44.59;98146.72;10349326;28;20233;-70
2024/01/03 10:02:27;;;;;;;3.43;2.00;;;;;;;14.00;46.33;98059.50;10318596;23;20570;-36
2024/01/03 10:07:33;;;;;;;3.63;2.00;;;;;;;14.07;46.46;98070.09;10265910;28;20770;-37
2024/01/03 10:12:35;;;;;;;1.80;1.70;;;;;;;13.25;47.21;98147.56;10275258;28;20245;-36
2024/01/03 10:17:36;;;;;;;1.80;1.70;;;;;;;13.89;47.78;97998.59;10261394;28;20283;-34
2024/01/03 10:22:38;;;;;;;2.13;1.90;;;;;;;14.14;46.58;98149.56;10266599;28;20239;-35
2024/01/03 10:27:40;;;;;;;2.33;1.80;;;;;;;14.86;45.67;98075.06;10263914;28;20342;-35
2024/01/03 10:32:43;;;;;;;1.63;1.53;;;;;;;11.42;50.85;98134.28;10266074;28;20653;-35
2024/01/03 10:37:45;;;;;;;2.10;1.70;;;;;;;13.87;47.57;98105.56;10264925;28;20602;-35
2024/01/03 10:42:49;;;;;;;2.83;2.10;;;;;;;14.55;46.26;98080.09;10284928;28;20238;-35
2024/01/03 10:47:51;;;;;;;2.23;2.03;;;;;;;14.51;45.72;98083.53;10264412;28;20226;-35
2024/01/03 10:52:58;;;;;;;2.53;2.17;;;;;;;15.19;44.87;98123.63;10281914;28;20354;-35
2024/01/03 10:58:02;;;;;;;2.77;2.30;;;;;;;16.39;42.88;98119.63;10275832;28;20370;-35
2024/01/03 11:06:25;;;;;;;3.10;2.10;;;;;;;11.85;50.93;98043.94;10378467;28;20793;-67
2024/01/03 11:11:36;;;;;;;3.90;2.27;;;;;;;11.72;50.92;98023.56;10328915;28;20241;-64
2024/01/03 11:16:40;;;;;;;2.87;2.17;;;;;;;11.18;50.20;98071.03;10344408;28;20434;-66
2024/01/03 11:21:49;;;;;;;4.40;2.43;;;;;;;12.03;48.67;98007.31;10347064;28;20689;-65
2024/01/03 11:26:54;;;;;;;5.87;2.90;;;;;;;12.45;47.56;98058.00;10345376;28;20295;-65
2024/01/03 11:32:02;;;;;;;5.70;3.00;;;;;;;12.21;48.13;98025.91;10348770;28;20715;-64
2024/01/03 11:37:06;;;;;;;5.40;2.27;;;;;;;12.08;47.51;98120.00;10345915;28;20260;-65
2024/01/03 11:42:09;;;;;;;8.67;2.30;;;;;;;12.87;46.93;98069.31;10348328;28;20296;-65
2024/01/03 11:47:13;;;;;;;4.13;2.20;;;;;;;12.87;46.42;98106.06;10345334;28;20414;-66
2024/01/03 11:52:15;;;;;;;3.60;2.57;;;;;;;11.74;47.34;98152.78;10343494;28;20243;-66
2024/01/03 11:57:21;;;;;;;3.13;1.90;;;;;;;12.55;45.96;98064.44;10343863;28;20221;-66
2024/01/03 12:02:23;;;;;;;3.03;1.80;;;;;;;11.69;50.45;98025.88;10342990;28;20333;-66
2024/01/03 12:07:25;;;;;;;4.13;2.20;;;;;;;12.07;49.56;98073.63;10341387;28;20237;-65
2024/01/03 12:12:27;;;;;;;2.70;2.50;;;;;;;12.64;50.08;97979.00;10345379;28;20597;-65
2024/01/03 12:17:31;;;;;;;3.03;2.50;;;;;;;11.90;49.95;98120.97;10315314;28;20328;-65
2024/01/03 12:22:34;;;;;;;2.63;2.07;;;;;;;12.43;49.15;98015.31;10317828;28;20321;-65
2024/01/03 12:27:36;;;;;;;2.43;1.97;;;;;;;12.35;49.67;98029.09;10317127;28;20238;-66
2024/01/03 12:32:37;;;;;;;2.67;1.77;;;;;;;12.11;49.46;98005.06;10313248;28;20709;-65
2024/01/03 12:37:44;;;;;;;2.13;2.03;;;;;;;12.31;48.61;98015.38;10313068;28;20328;-65
2024/01/03 12:42:48;;;;;;;1.60;1.50;;;;;;;11.61;48.89;98118.13;10317289;28;20505;-66
2024/01/03 12:47:50;;;;;;;1.90;1.80;;;;;;;12.17;48.36;98052.38;10313817;28;20300;-65
2024/01/03 12:52:52;;;;;;;1.70;1.60;;;;;;;12.69;47.90;97973.72;10314901;28;20329;-66
2024/01/03 12:57:54;;;;;;;2.80;1.80;;;;;;;12.50;47.79;98012.53;10314542;28;20246;-66
2024/01/03 13:02:55;;;;;;;8.23;1.70;;;;;;;11.73;48.11;98086.00;10316346;28;20234;-66
2024/01/03 13:07:57;;;;;;;2.87;1.80;;;;;;;12.60;46.80;98019.97;10316265;28;20240;-66
2024/01/03 13:12:59;;;;;;;1.70;1.60;;;;;;;11.72;47.61;98071.78;10317199;28;20286;-66
2024/01/03 13:18:01;;;;;;;3.23;1.87;;;;;;;12.78;47.00;97954.53;10311926;28;20241;-66
2024/01/03 13:23:03;;;;;;;3.37;1.60;;;;;;;12.28;47.12;97988.22;10318483;28;20739;-66
2024/01/03 13:28:05;;;;;;;3.97;2.00;;;;;;;12.44;47.06;98000.06;10310630;28;20234;-65
2024/01/03 13:33:07;;;;;;;3.27;2.00;;;;;;;12.43;47.81;97979.66;10314435;28;20303;-64
2024/01/03 13:38:11;;;;;;;2.40;1.80;;;;;;;12.86;46.52;98032.78;10311017;28;20567;-66
2024/01/03 13:43:12;;;;;;;1.90;1.80;;;;;;;12.82;46.80;97995.91;10315511;28;20780;-66
2024/01/03 13:48:14;;;;;;;2.30;1.93;;;;;;;12.04;46.94;98132.25;10313057;28;20798;-65
2024/01/03 13:53:16;;;;;;;1.80;1.70;;;;;;;11.92;47.76;98030.41;10313160;28;20223;-65
2024/01/03 13:58:18;;;;;;;2.17;2.00;;;;;;;13.45;46.02;97954.50;10313105;28;20304;-65
2024/01/03 14:03:20;;;;;;;1.53;1.50;;;;;;;11.19;49.12;98080.69;10312554;28;20746;-65
2024/01/03 14:08:21;;;;;;;2.10;1.90;;;;;;;12.28;47.60;98082.91;10311525;28;20294;-65
2024/01/03 14:13:23;;;;;;;2.00;1.90;;;;;;;13.29;46.52;97934.69;10312397;28;20236;-66
2024/01/03 14:18:25;;;;;;;1.70;1.60;;;;;;;12.62;47.55;97967.69;10312107;28;20254;-66
2024/01/03 14:23:27;;;;;;;1.77;1.67;;;;;;;12.21;48.26;97993.72;10315046;28;20324;-66
2024/01/03 14:28:32;;;;;;;1.80;1.70;;;;;;;14.00;45.14;97984.19;10311590;28;20245;-66
2024/01/03 14:33:33;;;;;;;2.93;2.10;;;;;;;12.35;46.55;98088.13;10314442;28;20706;-66
2024/01/03 14:38:35;;;;;;;2.07;1.97;;;;;;;12.64;47.01;97996.97;10298774;28;20246;-66
2024/01/03 14:43:44;;;;;;;1.90;1.80;;;;;;;12.69;45.53;98118.63;10301043;28;20236;-66
2024/01/03 14:48:46;;;;;;;2.17;1.97;;;;;;;13.96;43.83;98055.69;10302663;28;20230;-66
2024/01/03 14:53:48;;;;;;;3.03;1.90;;;;;;;13.45;44.57;98018.97;10310970;28;20237;-65
2024/01/03 14:58:51;;;;;;;3.70;2.27;;;;;;;14.04;44.04;98004.16;10303134;28;20336;-65
2024/01/03 15:03:53;;;;;;;1.90;1.80;;;;;;;12.71;45.37;97989.56;10311915;28;20244;-66
2024/01/03 15:08:55;;;;;;;3.30;1.80;;;;;;;14.50;42.22;98041.56;10309669;28;20300;-65
2024/01/03 15:13:57;;;;;;;1.93;1.80;;;;;;;12.68;44.91;98033.78;10313010;28;20234;-65
2024/01/03 15:18:58;;;;;;;2.67;1.93;;;;;;;13.31;44.49;97963.94;10310014;28;20202;-65
2024/01/03 15:24:01;;;;;;;1.90;1.77;;;;;;;13.13;43.78;98061.69;10298903;28;20294;-67
2024/01/03 15:29:04;;;;;;;2.50;2.30;;;;;;;14.32;42.93;97965.47;10295771;28;20931;-65
2024/01/03 15:34:06;;;;;;;2.70;1.83;;;;;;;13.52;43.43;98059.09;10304774;28;20332;-65
2024/01/03 15:39:08;;;;;;;2.53;1.90;;;;;;;13.89;43.10;98060.44;10307422;28;20218;-66
2024/01/03 15:44:11;;;;;;;2.00;1.80;;;;;;;13.61;43.93;97957.38;10313451;28;20258;-65
2024/01/03 15:49:13;;;;;;;2.57;2.20;;;;;;;13.45;44.23;97991.28;10312685;28;20308;-66
2024/01/03 15:54:19;;;;;;;3.30;1.93;;;;;;;12.44;46.57;98013.47;10319606;28;20308;-66
2024/01/03 15:59:37;;;;;;;4.37;2.30;;;;;;;12.83;46.72;98076.19;10311728;28;20704;-67
2024/01/03 16:04:40;;;;;;;3.13;2.07;;;;;;;12.29;48.04;97977.25;10301751;28;20630;-72
2024/01/03 16:09:42;;;;;;;3.33;2.00;;;;;;;12.27;47.50;98011.56;10305212;28;20728;-69
2024/01/03 16:14:47;;;;;;;4.93;2.50;;;;;;;13.58;45.91;97955.19;10306362;28;20238;-70
2024/01/03 16:19:49;;;;;;;2.83;2.20;;;;;;;13.60;46.01;97955.78;10308432;28;20795;-71
2024/01/03 16:24:51;;;;;;;4.27;2.50;;;;;;;13.52;46.24;97948.94;10304931;28;20281;-69
2024/01/03 16:29:53;;;;;;;2.63;2.43;;;;;;;11.87;48.87;98041.03;10306006;28;20299;-74
2024/01/03 16:34:54;;;;;;;4.23;2.70;;;;;;;13.03;48.71;97906.59;10314259;28;20240;-73
2024/01/03 16:39:56;;;;;;;2.60;2.40;;;;;;;13.06;49.05;97913.34;10317688;28;20245;-67
2024/01/03 16:44:58;;;;;;;4.60;2.30;;;;;;;12.54;49.69;97936.69;10314300;28;20238;-67
2024/01/03 16:49:59;;;;;;;4.27;2.30;;;;;;;12.29;50.41;97953.13;10316968;28;20615;-67
2024/01/03 16:55:04;;;;;;;2.77;2.00;;;;;;;12.11;50.29;97867.53;10311675;28;20234;-67
2024/01/03 17:00:07;;;;;;;3.00;2.80;;;;;;;11.45;49.96;98005.25;10310521;28;20240;-67
2024/01/03 17:05:10;;;;;;;4.27;2.73;;;;;;;11.48;50.78;97966.47;10316341;28;20332;-68
2024/01/03 17:10:13;;;;;;;5.37;3.33;;;;;;;10.73;52.74;97865.47;10311000;28;20245;-70
2024/01/03 17:15:15;;;;;;;4.47;3.43;;;;;;;11.69;51.05;97897.28;10302354;28;20702;-70
2024/01/03 17:20:17;;;;;;;2.50;2.23;;;;;;;11.21;50.88;97845.69;10303547;28;20257;-70
2024/01/03 17:25:20;;;;;;;1.93;1.83;;;;;;;10.50;51.61;97899.16;10303242;28;20372;-71
2024/01/03 17:30:22;;;;;;;2.37;2.17;;;;;;;10.68;50.93;97959.75;10303275;28;20321;-71
2024/01/03 17:35:24;;;;;;;2.40;2.20;;;;;;;10.00;52.28;97963.63;10313048;28;20425;-69
2024/01/03 17:40:27;;;;;;;2.20;2.10;;;;;;;10.73;51.15;97852.06;10312963;28;20245;-71
2024/01/03 17:45:29;;;;;;;2.60;2.40;;;;;;;10.75;50.48;97936.44;10302859;28;20246;-74
2024/01/03 17:50:30;;;;;;;2.20;2.10;;;;;;;10.49;51.29;97972.41;10305176;28;20234;-67
2024/01/03 17:55:32;;;;;;;2.27;2.07;;;;;;;12.33;48.92;97816.66;10312341;28;20622;-66
2024/01/03 18:00:34;;;;;;;2.20;2.00;;;;;;;11.33;51.17;97840.28;10311917;28;20237;-66
2024/01/03 18:05:39;;;;;;;2.33;2.13;;;;;;;11.29;49.87;97987.22;10306797;28;20261;-68
2024/01/03 18:10:41;;;;;;;2.70;1.90;;;;;;;10.24;51.58;97988.59;10309713;28;20273;-67
2024/01/03 18:15:42;;;;;;;2.60;2.30;;;;;;;11.32;50.73;97935.06;10305730;28;20655;-67
2024/01/03 18:20:44;;;;;;;2.57;2.33;;;;;;;11.31;49.89;97989.69;10313183;28;20487;-67
2024/01/03 18:25:47;;;;;;;3.37;3.07;;;;;;;11.05;51.12;97956.94;10312138;28;20335;-67
2024/01/03 18:30:49;;;;;;;5.40;2.40;;;;;;;11.67;49.97;98025.31;10312188;28;20245;-67
2024/01/03 18:35:51;;;;;;;4.00;2.27;;;;;;;12.40;48.21;98061.44;10308852;28;20244;-68
2024/01/03 18:40:54;;;;;;;2.80;2.37;;;;;;;12.01;49.45;97978.03;10313563;28;20335;-68
2024/01/03 18:45:58;;;;;;;2.03;1.93;;;;;;;11.55;50.03;98026.09;10312383;28;20242;-67
2024/01/03 18:51:00;;;;;;;3.80;2.27;;;;;;;11.77;49.39;98007.59;10309938;28;20240;-67
2024/01/03 18:56:02;;;;;;;3.97;2.20;;;;;;;11.97;48.72;97969.66;10313178;28;20324;-67
2024/01/03 19:01:05;;;;;;;3.20;2.20;;;;;;;11.98;48.19;98002.66;10312713;28;20233;-68
2024/01/03 19:06:07;;;;;;;2.57;2.13;;;;;;;11.69;48.23;98033.94;10312412;28;20242;-68
2024/01/03 19:11:09;;;;;;;3.40;2.10;;;;;;;10.51;49.88;97997.88;10314282;28;20485;-67
2024/01/03 19:16:11;;;;;;;4.03;2.57;;;;;;;10.55;48.67;98176.63;10308539;28;20836;-68
2024/01/03 19:21:12;;;;;;;5.17;2.07;;;;;;;11.89;47.33;98037.03;10312586;28;20253;-69
2024/01/03 19:26:15;;;;;;;2.27;2.00;;;;;;;10.62;49.45;98115.84;10314562;28;20333;-69
2024/01/03 19:31:17;;;;;;;4.63;2.57;;;;;;;11.41;47.92;98100.50;10320466;28;20324;-68
2024/01/03 19:36:19;;;;;;;2.53;2.33;;;;;;;11.31;48.61;98053.94;10312004;28;20712;-69
2024/01/03 19:41:21;;;;;;;4.07;2.43;;;;;;;12.11;47.31;98064.03;10319682;28;20237;-68
2024/01/03 19:46:23;;;;;;;2.80;1.90;;;;;;;12.00;46.65;98146.13;10316949;28;20237;-68
2024/01/03 19:51:26;;;;;;;3.57;2.20;;;;;;;11.94;47.58;98101.47;10311439;28;20682;-69
2024/01/03 19:56:28;;;;;;;2.50;2.00;;;;;;;12.36;46.74;98130.81;10316970;28;20725;-69
2024/01/03 20:01:30;;;;;;;2.30;2.10;;;;;;;12.43;46.80;98095.00;10317164;28;20269;-69
2024/01/03 20:06:31;;;;;;;2.93;1.90;;;;;;;12.38;46.74;98127.88;10320035;28;20739;-71
2024/01/03 20:11:33;;;;;;;2.80;1.97;;;;;;;11.85;47.18;98140.41;10319541;28;20242;-70
2024/01/03 20:16:41;;;;;;;3.17;1.83;;;;;;;12.47;46.37;98069.34;10318412;28;20241;-70
2024/01/03 20:21:45;;;;;;;2.03;1.93;;;;;;;12.34;46.37;98140.16;10322408;28;20246;-69
2024/01/03 20:26:47;;;;;;;2.83;1.90;;;;;;;12.51;46.06;98148.31;10318047;28;20283;-70
2024/01/03 20:31:51;;;;;;;3.47;2.10;;;;;;;12.70;46.16;98098.78;10319116;28;20713;-70
2024/01/03 20:36:53;;;;;;;4.20;2.57;;;;;;;12.02;46.73;98164.66;10317750;28;20329;-70
2024/01/03 20:41:56;;;;;;;3.10;2.10;;;;;;;12.02;46.64;98147.78;10313460;28;20272;-71
2024/01/03 20:46:58;;;;;;;2.40;2.00;;;;;;;11.59;47.27;98181.81;10290351;28;20234;-70
2024/01/03 20:52:00;;;;;;;2.37;2.00;;;;;;;9.94;48.66;98326.06;10297197;28;20309;-70
2024/01/03 20:57:02;;;;;;;4.27;2.00;;;;;;;12.26;46.31;98076.94;10312456;28;20234;-70
2024/01/03 21:02:05;;;;;;;2.67;2.40;;;;;;;12.35;45.53;98149.81;10315996;28;20287;-71
2024/01/03 21:07:06;;;;;;;4.80;2.67;;;;;;;11.28;46.36;98290.03;10318491;28;20439;-72
2024/01/03 21:12:08;;;;;;;3.37;1.90;;;;;;;11.88;46.24;98182.00;10317384;28;20269;-71
2024/01/03 21:17:10;;;;;;;3.07;2.10;;;;;;;11.19;46.08;98316.31;10317517;28;20250;-70
2024/01/03 21:22:12;;;;;;;4.53;2.53;;;;;;;12.40;45.16;98211.63;10314580;28;20238;-67
2024/01/03 21:27:13;;;;;;;3.63;2.30;;;;;;;12.46;44.25;98326.03;10310706;28;20238;-67
2024/01/03 21:32:35;;;;;;;4.87;2.30;;;;;;;11.52;45.81;98290.94;10316776;28;20261;-67
2024/01/03 21:37:37;;;;;;;2.90;2.37;;;;;;;12.00;44.98;98255.22;10310871;28;20292;-67
2024/01/03 21:42:40;;;;;;;2.97;2.17;;;;;;;13.65;44.11;98120.59;10316976;28;20308;-67
2024/01/03 21:47:42;;;;;;;4.43;2.43;;;;;;;12.07;45.94;98205.00;10307690;28;20244;-67
2024/01/03 21:52:45;;;;;;;4.67;2.10;;;;;;;11.21;47.11;98354.38;10310907;28;20241;-67
2024/01/03 21:57:48;;;;;;;3.73;2.20;;;;;;;12.28;46.56;98187.50;10308565;28;20244;-67
2024/01/03 22:02:51;;;;;;;2.90;2.27;;;;;;;12.97;45.47;98181.41;10324990;23;20225;-35
2024/01/03 22:07:53;;;;;;;3.00;1.90;;;;;;;13.17;45.65;98146.06;10349876;28;20594;-34
2024/01/03 22:12:55;;;;;;;4.80;2.23;;;;;;;12.03;47.42;98211.88;10355027;28;20233;-34
2024/01/03 22:17:57;;;;;;;3.30;2.30;;;;;;;11.83;47.38;98185.41;10351466;28;20783;-35
2024/01/03 22:22:59;;;;;;;2.50;2.10;;;;;;;12.05;47.08;98177.59;10353450;28;20225;-35
2024/01/03 22:28:02;;;;;;;3.07;2.37;;;;;;;12.19;46.47;98231.81;10355749;28;20236;-38
2024/01/03 22:33:04;;;;;;;3.30;2.20;;;;;;;11.68;47.31;98266.22;10354026;28;20241;-36
2024/01/03 22:38:06;;;;;;;5.53;2.13;;;;;;;10.73;47.96;98358.56;10348007;28;20241;-35
2024/01/03 22:43:07;;;;;;;4.00;2.03;;;;;;;11.85;46.78;98285.16;10347674;28;20237;-36
2024/01/03 22:48:09;;;;;;;3.87;2.10;;;;;;;11.60;47.64;98263.84;10349042;28;20241;-37
2024/01/03 22:53:13;;;;;;;5.30;2.50;;;;;;;12.15;47.05;98230.66;10354516;28;20237;-36
2024/01/03 22:58:14;;;;;;;4.50;2.50;;;;;;;11.91;47.15;98296.81;10352134;28;20541;-35
2024/01/03 23:03:16;;;;;;;4.97;2.20;;;;;;;11.68;48.00;98223.34;10346322;28;20757;-36
2024/01/03 23:08:18;;;;;;;2.20;2.00;;;;;;;11.33;47.82;98280.28;10348962;28;20729;-36
2024/01/03 23:13:20;;;;;;;4.83;2.60;;;;;;;12.16;46.51;98219.69;10348017;28;20235;-36
2024/01/03 23:18:22;;;;;;;4.43;2.37;;;;;;;12.10;47.27;98148.22;10349562;28;20297;-36
2024/01/03 23:23:24;;;;;;;4.23;2.50;;;;;;;11.43;47.82;98168.06;10362017;22;20252;-38
2024/01/03 23:28:37;;;;;;;4.67;2.50;;;;;;;10.75;48.06;98281.56;10345137;28;20233;-38